Latest Weather Observations for Strathalbyn

IDS60801

Issued at 6:02 pm CDT Thursday 2 April 2015 (issued every 30 minutes, with the page automatically refreshed every 10 minutes)

About weather observations | Map of weather stations | Latest weather observations for SA | Other Formats
Station Details ID: 024580 Name: STRATHALBYN RACECOURSE Lat: -35.28 Lon: 138.89 Height: 58.0 m
Data from the previous 72 hours. | See also: Recent months at Strathalbyn
Date/Time
CDT
Temp
°C
App
Temp
°C
Dew
Point
Rel
Hum
%
Delta-T
°C
Wind Press
QNH
hPa
Press
MSL
hPa
Rain
since 9 am
mm
Dir
 
Spd
km/h
Gust
km/h
Spd
kts
Gust
kts
02/06:00pm 16.8 10.9 6.0 49 5.2 S 26 33 14 18 1022.9 1022.8 0.0
02/05:30pm 17.2 11.3 5.8 47 5.5 SSE 26 35 14 19 1022.9 - 0.0
02/05:00pm 17.5 12.0 5.8 46 5.7 S 24 33 13 18 1022.9 - 0.0
02/04:30pm 18.0 12.5 5.9 45 5.9 SSE 24 33 13 18 1022.9 - 0.0
02/04:00pm 18.5 13.3 5.7 43 6.3 SSE 22 32 12 17 1023.1 - 0.0
02/03:30pm 18.0 12.6 4.6 41 6.4 SSE 22 30 12 16 1023.3 - 0.0
02/03:00pm 17.9 12.8 4.1 40 6.5 SE 20 32 11 17 1023.7 1023.6 0.0
02/02:30pm 18.5 13.4 6.0 44 6.2 SE 22 35 12 19 1023.9 - 0.0
02/02:00pm 18.2 13.0 5.4 43 6.2 SE 22 35 12 19 1024.4 - 0.0
02/01:30pm 17.0 11.3 4.7 44 5.8 SE 24 35 13 19 1024.9 - 0.0
02/01:00pm 18.0 13.3 5.9 45 5.9 ESE 20 33 11 18 1025.2 - 0.0
02/12:30pm 17.6 13.0 5.5 45 5.9 ESE 19 33 10 18 1025.5 - 0.0
02/12:00pm 16.5 11.0 5.8 49 5.2 ESE 24 33 13 18 1025.9 1025.8 0.0
02/11:30am 17.0 11.9 6.2 49 5.3 ESE 22 35 12 19 1026.0 - 0.0
02/11:00am 16.1 11.1 6.5 53 4.7 ESE 22 30 12 16 1026.0 - 0.0
02/10:30am 15.9 10.4 6.1 52 4.8 SE 24 33 13 18 1026.1 - 0.0
02/10:00am 15.6 10.2 6.3 54 4.5 SE 24 32 13 17 1025.9 - 0.0
02/09:30am 14.7 10.5 7.3 61 3.6 E 19 28 10 15 1025.8 - 0.0
02/09:00am 15.0 10.8 7.3 60 3.8 SE 19 26 10 14 1025.4 1025.3 1.6
02/08:30am 13.7 11.2 8.1 69 2.8 ESE 11 15 6 8 1025.1 - 1.6
02/08:00am 12.7 10.4 7.6 71 2.5 SE 9 13 5 7 1024.7 - 1.6
02/07:30am 12.7 9.7 7.8 72 2.4 SE 13 15 7 8 1024.4 - 1.6
02/07:00am 12.9 10.1 7.1 68 2.8 SSE 11 17 6 9 1023.9 - 1.6
02/06:30am 13.1 9.0 6.2 63 3.3 SSE 17 22 9 12 1023.5 - 1.6
02/06:00am 12.9 8.9 6.7 66 3.0 SSE 17 20 9 11 1023.1 1023.0 1.6
02/05:30am 13.1 9.3 7.5 69 2.7 SSE 17 24 9 13 1022.8 - 1.6
02/05:00am 12.5 9.7 8.6 77 1.9 S 13 15 7 8 1022.3 - 1.6
02/04:30am 11.9 8.9 7.8 76 2.0 S 13 15 7 8 1022.0 - 1.6
02/04:00am 11.9 8.2 8.0 77 1.9 S 17 17 9 9 1022.0 - 1.6
02/03:30am 13.0 9.5 8.9 76 2.1 S 17 20 9 11 1021.9 - 1.6
02/03:00am 13.4 10.0 9.3 76 2.1 S 17 24 9 13 1021.8 1021.7 1.6
02/02:30am 14.6 10.9 10.0 74 2.4 S 20 26 11 14 1021.7 - 1.6
02/02:00am 14.7 10.7 10.5 76 2.2 S 22 30 12 16 1021.6 - 1.6
02/01:30am 14.8 10.6 11.2 79 1.9 S 24 32 13 17 1021.4 - 1.6
02/01:21am 14.7 9.9 11.5 81 1.7 S 28 41 15 22 1021.4 - 1.6
02/01:00am 14.9 11.7 11.3 79 1.9 S 19 22 10 12 1021.3 - 1.6
02/12:30am 14.9 11.5 11.3 79 1.9 S 20 26 11 14 1021.1 - 1.6
02/12:00am 15.1 10.3 11.7 80 1.8 SSW 28 37 15 20 1021.1 1021.0 1.6
 
Date/Time
CDT
Temp
°C
App
Temp
°C
Dew
Point
Rel
Hum
%
Delta-T
°C
Wind Press
QNH
hPa
Press
MSL
hPa
Rain
since 9 am
mm
Dir
 
Spd
km/h
Gust
km/h
Spd
kts
Gust
kts
01/11:30pm 15.2 11.5 12.7 85 1.4 SSW 24 32 13 17 1021.0 - 1.6
01/11:00pm 15.0 11.7 13.9 93 0.6 SSW 24 33 13 18 1020.8 - 1.6
01/10:30pm 15.3 11.3 14.2 93 0.6 S 28 39 15 21 1020.3 - 1.6
01/10:00pm 15.9 12.1 14.8 93 0.6 SSW 28 37 15 20 1019.8 - 1.2
01/09:30pm 16.2 12.0 14.7 91 0.9 SSW 30 39 16 21 1019.1 - 1.0
01/09:04pm 16.9 13.2 15.1 89 1.0 SW 28 46 15 25 1018.4 - 0.8
01/09:00pm 17.4 15.6 15.9 91 0.9 SSW 20 33 11 18 1018.3 1018.3 0.8
01/08:30pm 17.6 16.7 15.9 90 1.0 S 15 20 8 11 1017.7 - 0.8
01/08:00pm 17.7 17.2 16.0 90 1.0 SW 13 15 7 8 1016.9 - 0.8
01/07:30pm 17.7 16.1 15.9 89 1.1 SSW 19 22 10 12 1016.7 - 0.6
01/07:00pm 18.0 18.9 16.0 88 1.2 SW 6 7 3 4 1016.0 - 0.4
01/06:30pm 18.0 16.3 15.8 87 1.3 SSW 19 26 10 14 1016.1 - 0.0
01/06:00pm 19.5 17.5 15.4 77 2.4 SW 20 26 11 14 1015.5 1015.5 0.0
01/05:30pm 21.8 20.0 14.4 63 4.3 W 17 22 9 12 1015.2 - 0.0
01/05:00pm 22.3 19.9 14.4 61 4.6 W 20 26 11 14 1014.7 - 0.0
01/04:30pm 23.8 19.8 13.1 51 6.2 W 26 33 14 18 1014.3 - 0.0
01/04:00pm 26.1 21.9 9.9 36 9.0 W 22 32 12 17 1013.7 - 0.0
01/03:30pm 27.9 22.8 9.2 31 10.3 WNW 26 39 14 21 1013.4 - 0.0
01/03:00pm 28.2 21.9 7.4 27 11.2 W 30 48 16 26 1013.3 1013.2 0.0
01/02:46pm 28.6 21.7 7.2 26 11.5 WNW 33 52 18 28 1013.2 - 0.0
01/02:30pm 30.0 23.8 7.8 25 12.1 WNW 30 46 16 25 1013.0 - 0.0
01/02:00pm 29.7 21.6 5.1 21 12.8 WNW 37 57 20 31 1013.4 - 0.0
01/01:31pm 29.1 20.1 2.4 18 13.2 NW 39 61 21 33 1013.4 - 0.0
01/01:30pm 29.1 20.1 2.4 18 13.2 NW 39 56 21 30 1013.5 - 0.0
01/01:03pm 29.6 19.6 2.0 17 13.6 NW 44 63 24 34 1013.3 - 0.0
01/01:00pm 29.5 19.1 1.9 17 13.6 NW 46 61 25 33 1013.3 - 0.0
01/12:33pm 29.3 21.5 1.7 17 13.5 NW 32 54 17 29 1013.7 - 0.0
01/12:30pm 29.2 21.4 1.7 17 13.5 NNW 32 43 17 23 1013.7 - 0.0
01/12:03pm 28.6 20.7 1.2 17 13.3 NNW 32 50 17 27 1013.8 - 0.0
01/12:00pm 28.5 21.4 1.1 17 13.2 NNW 28 39 15 21 1013.7 1013.6 0.0
01/11:48am 28.4 21.2 1.0 17 13.2 NNW 28 46 15 25 1013.8 - 0.0
01/11:30am 28.0 21.7 1.5 18 12.8 NNW 24 33 13 18 1014.0 - 0.0
01/11:00am 27.5 21.1 1.1 18 12.7 NNW 24 30 13 16 1014.1 - 0.0
01/10:30am 27.3 21.3 0.9 18 12.6 NNW 22 33 12 18 1014.4 - 0.0
01/10:00am 26.4 22.5 0.9 19 12.1 N 11 17 6 9 1014.8 - 0.0
01/09:30am 25.6 20.5 1.0 20 11.6 NE 17 20 9 11 1014.8 - 0.0
01/09:00am 24.8 20.5 1.0 21 11.2 NE 13 17 7 9 1015.1 1015.1 0.0
01/08:30am 24.7 20.5 1.6 22 11.0 N 13 15 7 8 1015.0 - 0.0
01/08:00am 24.2 19.6 1.8 23 10.6 N 15 19 8 10 1015.1 - 0.0
01/07:30am 24.5 19.5 1.4 22 10.9 N 17 22 9 12 1015.0 - 0.0
01/07:00am 24.5 19.5 1.4 22 10.9 NNW 17 22 9 12 1015.3 - 0.0
01/06:30am 24.9 19.6 1.7 22 11.0 N 19 26 10 14 1015.0 - 0.0
01/06:00am 23.9 19.0 2.1 24 10.4 N 17 20 9 11 1015.0 1015.0 0.0
01/05:30am 24.2 19.0 2.4 24 10.5 N 19 26 10 14 1015.0 - 0.0
01/05:00am 23.9 19.6 3.2 26 10.1 N 15 20 8 11 1015.3 - 0.0
01/04:30am 23.5 19.3 4.0 28 9.6 N 15 17 8 9 1015.5 - 0.0
01/04:00am 21.6 18.0 5.1 34 8.2 N 13 13 7 7 1015.7 - 0.0
01/03:30am 19.1 16.5 6.2 43 6.4 N 9 11 5 6 1016.2 - 0.0
01/03:00am 18.3 16.1 6.2 45 6.0 N 7 9 4 5 1016.7 1016.7 0.0
01/02:30am 16.4 14.4 7.1 54 4.6 NE 7 9 4 5 1017.4 - 0.0
01/02:00am 16.2 14.2 7.2 55 4.5 NE 7 9 4 5 1017.8 - 0.0
01/01:30am 15.9 13.4 6.6 54 4.6 N 9 11 5 6 1018.1 - 0.0
01/01:00am 17.7 14.4 6.6 48 5.5 NNW 13 13 7 7 1018.3 - 0.0
01/12:30am 17.7 14.4 6.3 47 5.6 NNW 13 15 7 8 1018.5 - 0.0
01/12:00am 18.4 15.1 6.6 46 5.9 NNW 13 17 7 9 1018.8 1018.8 0.0
 
Date/Time
CDT
Temp
°C
App
Temp
°C
Dew
Point
Rel
Hum
%
Delta-T
°C
Wind Press
QNH
hPa
Press
MSL
hPa
Rain
since 9 am
mm
Dir
 
Spd
km/h
Gust
km/h
Spd
kts
Gust
kts
31/11:30pm 17.6 14.8 6.8 49 5.4 NNW 11 13 6 7 1019.0 - 0.0
31/11:00pm 18.3 15.3 6.2 45 6.0 NNW 11 17 6 9 1019.3 - 0.0
31/10:30pm 18.1 15.2 6.6 47 5.7 NW 11 13 6 7 1019.3 - 0.0
31/10:00pm 18.7 16.7 6.2 44 6.2 NW 6 7 3 4 1019.4 - 0.0
31/09:30pm 19.6 16.3 6.3 42 6.7 NW 13 15 7 8 1019.3 - 0.0
31/09:00pm 19.8 17.5 5.8 40 6.9 SW 7 11 4 6 1019.3 1019.2 0.0
31/08:30pm 21.2 19.7 6.7 39 7.4 SW 4 9 2 5 1019.4 - 0.0
31/08:00pm 22.4 21.6 6.6 36 8.1 CALM 0 4 0 2 1019.4 - 0.0
31/07:30pm 23.2 20.3 6.5 34 8.6 SW 11 15 6 8 1019.4 - 0.0
31/07:00pm 25.3 21.8 7.0 31 9.6 SW 15 19 8 10 1019.3 - 0.0
31/06:30pm 26.9 22.7 5.8 26 11.0 SW 17 24 9 13 1019.1 - 0.0
31/06:00pm 28.3 23.5 5.8 24 11.7 SW 20 28 11 15 1018.7 1018.6 0.0
31/05:30pm 30.4 27.1 6.3 22 12.9 NE 13 20 7 11 1018.5 - 0.0
31/05:00pm 30.8 26.6 3.8 18 13.9 NE 15 20 8 11 1018.4 - 0.0
31/04:30pm 30.6 25.8 4.4 19 13.6 ENE 19 26 10 14 1018.6 - 0.0
31/04:00pm 30.6 25.8 4.4 19 13.6 NE 19 28 10 15 1019.0 - 0.0
31/03:30pm 30.7 25.7 4.4 19 13.6 NE 20 28 11 15 1019.1 - 0.0
31/03:00pm 30.6 25.9 5.1 20 13.3 ENE 19 28 10 15 1019.5 1019.4 0.0
31/02:30pm 30.0 25.7 5.3 21 12.9 ENE 17 24 9 13 1020.0 - 0.0
31/02:00pm 29.9 25.4 5.9 22 12.7 ENE 19 30 10 16 1020.6 - 0.0
31/01:30pm 28.7 24.8 5.5 23 12.1 NE 15 26 8 14 1021.4 - 0.0
31/01:00pm 28.3 24.1 5.8 24 11.8 NNE 17 32 9 17 1021.9 - 0.0
31/12:30pm 27.6 24.4 6.9 27 11.0 N 13 22 7 12 1022.5 - 0.0
31/12:00pm 26.6 22.2 7.6 30 10.1 NE 20 28 11 15 1023.0 1022.8 0.0
31/11:30am 25.8 21.5 7.9 32 9.6 NNE 20 30 11 16 1023.4 - 0.0
31/11:00am 24.3 19.6 7.9 35 8.7 NNE 22 32 12 17 1023.7 - 0.0
31/10:30am 22.6 17.8 9.0 42 7.3 NE 24 32 13 17 1024.0 - 0.0
31/10:00am 21.4 18.3 10.3 49 6.1 NNE 17 26 9 14 1024.4 - 0.0
31/09:30am 18.8 17.6 11.6 63 4.0 N 9 13 5 7 1024.7 - 0.0
31/09:00am 16.3 15.4 11.2 72 2.7 N 7 11 4 6 1024.8 1024.6 0.0
31/08:30am 14.0 12.5 10.4 79 1.9 N 9 11 5 6 1024.9 - 0.0
31/08:00am 12.3 9.9 9.9 85 1.2 N 13 15 7 8 1024.7 - 0.0
31/07:30am 11.7 9.2 9.6 87 1.1 NNW 13 15 7 8 1024.7 - 0.0
31/07:00am 10.7 8.7 8.6 87 1.0 NNW 9 11 5 6 1024.6 - 0.0
31/06:30am 10.6 10.2 8.2 85 1.2 CALM 0 7 0 4 1024.7 - 0.0
31/06:00am 11.1 9.6 8.5 84 1.3 NNW 6 11 3 6 1024.4 1024.2 0.0
31/05:30am 11.4 8.7 9.0 85 1.2 NNW 13 15 7 8 1024.2 - 0.0
31/05:00am 12.1 9.2 9.5 84 1.3 NNW 15 15 8 8 1024.4 - 0.0
31/04:30am 11.7 9.4 9.1 84 1.3 NNW 11 15 6 8 1024.4 - 0.0
31/04:00am 11.9 9.7 9.3 84 1.3 NNW 11 13 6 7 1024.4 - 0.0
31/03:30am 11.9 10.1 9.3 84 1.3 NNW 9 11 5 6 1024.5 - 0.0
31/03:00am 12.1 10.9 9.5 84 1.3 NNW 6 9 3 5 1024.6 1024.4 0.0
31/02:30am 12.4 11.0 9.6 83 1.4 NNW 7 9 4 5 1024.8 - 0.0
31/02:00am 12.6 10.9 9.8 83 1.4 NNW 9 13 5 7 1024.8 - 0.0
31/01:30am 12.8 10.7 9.8 82 1.5 NNW 11 13 6 7 1025.1 - 0.0
31/01:00am 13.3 11.0 10.3 82 1.6 NW 13 13 7 7 1025.0 - 0.0
31/12:30am 13.5 11.2 10.3 81 1.7 NW 13 15 7 8 1025.0 - 0.0
31/12:00am 13.4 11.0 10.0 80 1.7 NW 13 15 7 8 1025.2 1025.0 0.0
 
Date/Time
CDT
Temp
°C
App
Temp
°C
Dew
Point
Rel
Hum
%
Delta-T
°C
Wind Press
QNH
hPa
Press
MSL
hPa
Rain
since 9 am
mm
Dir
 
Spd
km/h
Gust
km/h
Spd
kts
Gust
kts
30/11:30pm 13.7 12.1 10.1 79 1.9 NW 9 11 5 6 1025.4 - 0.0
30/11:00pm 14.0 11.7 10.4 79 1.9 NW 13 13 7 7 1025.6 - 0.0
30/10:30pm 14.0 12.8 10.4 79 1.9 W 7 9 4 5 1025.9 - 0.0
30/10:00pm 14.7 13.7 11.1 79 1.9 W 7 9 4 5 1025.9 - 0.0
30/09:30pm 15.7 14.5 11.7 77 2.2 W 9 11 5 6 1025.8 - 0.0
30/09:00pm 15.8 14.2 11.6 76 2.3 WSW 11 11 6 6 1025.6 1025.4 0.0
30/08:30pm 16.3 14.9 11.0 71 2.8 WSW 9 11 5 6 1025.3 - 0.0
30/08:00pm 17.4 15.4 11.4 68 3.3 SSW 13 17 7 9 1025.0 - 0.0
30/07:30pm 18.3 15.8 11.1 63 3.9 SSW 15 17 8 9 1024.7 - 0.0
30/07:00pm 20.0 17.5 11.0 56 4.9 S 15 20 8 11 1024.4 - 0.0
30/06:30pm 21.8 18.4 10.6 49 6.2 S 19 22 10 12 1024.1 - 0.0

Other Formats:

Comma delimited format used in spreadsheet applications
http://www.bom.gov.au/fwo/IDS60801/IDS60801.94814.axf

JavaScript Object Notation format (JSON) in row-major order
http://www.bom.gov.au/fwo/IDS60801/IDS60801.94814.json